Time;durP1;ratioP1;P1;durP2;ratioP2;P2;SDS_P1;SDS_P2;PMS_P1;PMS_P2;Temp;Humidity;BMP_temperature;BMP_pressure;BME280_temperature;BME280_humidity;BME280_pressure;Samples;Min_cycle;Max_cycle;Signal;HPM_P1;HPM_P2
2021/01/26 00:01:10;;;;;;;2.75;1.98;;;19.30;45.60;;;;;;4988771;28;20042;-41
2021/01/26 00:03:37;;;;;;;2.35;1.92;;;19.30;45.60;;;;;;4988827;28;20054;-43
2021/01/26 00:06:04;;;;;;;2.50;1.63;;;19.30;45.60;;;;;;4988505;28;20597;-40
2021/01/26 00:08:31;;;;;;;2.78;1.67;;;19.30;45.60;;;;;;4989000;28;20097;-39
2021/01/26 00:10:59;;;;;;;2.67;1.70;;;19.30;45.60;;;;;;4988470;28;20100;-38
2021/01/26 00:13:25;;;;;;;2.60;1.73;;;19.30;45.60;;;;;;4988698;28;20050;-39
2021/01/26 00:15:52;;;;;;;2.60;1.63;;;19.30;45.60;;;;;;4988038;28;20620;-39
2021/01/26 00:18:19;;;;;;;2.05;1.63;;;19.30;45.60;;;;;;4989785;28;20077;-39
2021/01/26 00:20:47;;;;;;;2.90;1.80;;;19.30;45.60;;;;;;4988526;28;20516;-41
2021/01/26 00:23:15;;;;;;;2.22;1.60;;;19.30;45.60;;;;;;5003034;28;20078;-39
2021/01/26 00:25:42;;;;;;;2.03;1.70;;;19.30;45.60;;;;;;5007590;28;20061;-40
2021/01/26 00:28:11;;;;;;;1.80;1.63;;;19.30;45.60;;;;;;5008414;28;20096;-38
2021/01/26 00:30:40;;;;;;;2.80;1.95;;;19.30;45.60;;;;;;5008197;28;20077;-40
2021/01/26 00:33:21;;;;;;;2.20;1.70;;;19.30;45.60;;;;;;5011705;28;20409;-39
2021/01/26 00:35:49;;;;;;;2.25;1.77;;;19.30;45.60;;;;;;5013289;28;20046;-39
2021/01/26 00:38:15;;;;;;;1.98;1.48;;;19.20;45.50;;;;;;5016360;28;20057;-39
2021/01/26 00:40:42;;;;;;;2.78;1.80;;;19.30;45.60;;;;;;5016642;28;20053;-39
2021/01/26 00:43:12;;;;;;;2.75;1.90;;;19.20;45.50;;;;;;5015973;28;20108;-40
2021/01/26 00:45:38;;;;;;;2.08;1.45;;;19.20;45.50;;;;;;5015436;28;20133;-39
2021/01/26 00:48:06;;;;;;;3.35;1.92;;;19.20;45.50;;;;;;5014776;28;20046;-39
2021/01/26 00:50:33;;;;;;;2.15;1.73;;;19.20;45.50;;;;;;5030974;28;20067;-40
2021/01/26 00:53:00;;;;;;;2.78;1.60;;;19.20;45.50;;;;;;5015711;28;20050;-39
2021/01/26 00:55:27;;;;;;;2.47;1.70;;;19.20;45.50;;;;;;5029198;28;20045;-39
2021/01/26 00:57:54;;;;;;;2.10;1.55;;;19.20;45.50;;;;;;5014498;28;20413;-38
2021/01/26 01:00:28;;;;;;;2.65;1.77;;;19.20;45.50;;;;;;5029264;28;20046;-38
2021/01/26 01:02:55;;;;;;;2.42;1.75;;;19.20;45.50;;;;;;5029002;28;20049;-39
2021/01/26 01:05:22;;;;;;;2.60;1.80;;;19.20;45.50;;;;;;5016417;28;20379;-38
2021/01/26 01:07:49;;;;;;;2.92;1.80;;;19.20;45.50;;;;;;5016185;28;20270;-38
2021/01/26 01:10:27;;;;;;;3.03;1.60;;;19.20;45.50;;;;;;5016173;28;20189;-39
2021/01/26 01:12:54;;;;;;;2.38;1.70;;;19.20;45.50;;;;;;5014508;28;20054;-39
2021/01/26 01:15:22;;;;;;;2.60;1.63;;;19.20;45.50;;;;;;5014190;28;20437;-39
2021/01/26 01:17:49;;;;;;;2.33;1.67;;;19.20;45.50;;;;;;5029029;28;20045;-38
2021/01/26 01:20:18;;;;;;;2.70;1.55;;;19.20;45.50;;;;;;5014069;28;20096;-39
2021/01/26 01:22:45;;;;;;;2.97;1.80;;;19.20;45.50;;;;;;5015758;28;20104;-43
2021/01/26 01:25:12;;;;;;;2.30;1.63;;;19.20;45.50;;;;;;5015211;28;20061;-40
2021/01/26 01:27:39;;;;;;;2.50;1.50;;;19.20;45.50;;;;;;5028806;28;20073;-39
2021/01/26 01:30:13;;;;;;;1.95;1.27;;;19.20;45.50;;;;;;5016383;28;20100;-39
2021/01/26 01:32:40;;;;;;;2.22;1.60;;;19.20;45.50;;;;;;5015466;28;20778;-40
2021/01/26 01:35:08;;;;;;;2.67;1.77;;;19.20;45.50;;;;;;5014089;28;20107;-41
2021/01/26 01:37:36;;;;;;;2.22;1.70;;;19.20;45.50;;;;;;5016758;28;20049;-39
2021/01/26 01:40:04;;;;;;;3.05;1.75;;;19.20;45.50;;;;;;5017204;28;20054;-38
2021/01/26 01:42:30;;;;;;;2.80;1.42;;;19.20;45.50;;;;;;5014998;28;20493;-42
2021/01/26 01:44:57;;;;;;;1.65;1.30;;;19.20;45.50;;;;;;5013087;28;20092;-38
2021/01/26 01:47:52;;;;;;;2.55;1.85;;;19.20;45.50;;;;;;5010522;28;20458;-38
2021/01/26 01:50:48;;;;;;;2.30;1.80;;;19.20;45.50;;;;;;4972478;28;20121;-38
2021/01/26 01:53:29;;;;;;;2.30;1.65;;;19.20;45.50;;;;;;4971997;28;20051;-38
2021/01/26 01:56:11;;;;;;;2.75;1.70;;;19.20;45.50;;;;;;4983514;28;20429;-38
2021/01/26 01:58:54;;;;;;;2.08;1.40;;;19.20;45.50;;;;;;4974237;28;20046;-38
2021/01/26 02:01:25;;;;;;;2.95;1.77;;;19.20;45.50;;;;;;4960126;28;20100;-38
2021/01/26 02:03:55;;;;;;;2.55;1.60;;;19.20;45.50;;;;;;4975560;28;20177;-39
2021/01/26 02:06:26;;;;;;;2.20;1.60;;;19.20;45.50;;;;;;4982454;28;20065;-39
2021/01/26 02:09:04;;;;;;;1.48;1.30;;;19.20;45.50;;;;;;4986566;28;20097;-38
2021/01/26 02:11:31;;;;;;;2.72;1.77;;;19.20;45.50;;;;;;4978911;28;20130;-38
2021/01/26 02:13:58;;;;;;;2.38;1.63;;;19.20;45.50;;;;;;4977836;28;20434;-38
2021/01/26 02:16:27;;;;;;;1.67;1.50;;;19.20;45.50;;;;;;4985541;28;20050;-38
2021/01/26 02:19:15;;;;;;;1.73;1.60;;;19.20;45.50;;;;;;4986370;28;20069;-38
2021/01/26 02:22:26;;;;;;;1.90;1.40;;;19.10;45.50;;;;;;4987183;28;20054;-39
2021/01/26 02:25:19;;;;;;;2.60;1.55;;;19.10;45.40;;;;;;4976420;28;20477;-38
2021/01/26 02:27:58;;;;;;;2.10;1.55;;;19.10;45.40;;;;;;5006121;28;20046;-38
2021/01/26 02:30:28;;;;;;;1.90;1.38;;;19.10;45.40;;;;;;5010071;28;20045;-39
2021/01/26 02:33:06;;;;;;;1.77;1.55;;;19.10;45.50;;;;;;5011444;28;20077;-40
2021/01/26 02:36:07;;;;;;;2.20;1.40;;;19.10;45.40;;;;;;5009837;28;20112;-42
2021/01/26 02:38:50;;;;;;;1.75;1.50;;;19.10;45.50;;;;;;5011000;28;20440;-44
2021/01/26 02:41:26;;;;;;;2.47;1.50;;;19.10;45.40;;;;;;5011183;28;20457;-42
2021/01/26 02:44:24;;;;;;;2.22;1.55;;;19.10;45.50;;;;;;5025131;28;20095;-42
2021/01/26 02:47:04;;;;;;;2.80;1.80;;;19.10;45.50;;;;;;5010217;28;20137;-43
2021/01/26 02:49:46;;;;;;;2.80;1.67;;;19.10;45.40;;;;;;5009688;28;20045;-41
2021/01/26 02:52:28;;;;;;;2.17;1.55;;;19.10;45.40;;;;;;5011198;28;20387;-45
2021/01/26 02:55:20;;;;;;;2.00;1.50;;;19.10;45.50;;;;;;5009529;28;20563;-39
2021/01/26 02:57:54;;;;;;;1.83;1.25;;;19.10;46.10;;;;;;5010881;28;20073;-41
2021/01/26 03:00:29;;;;;;;2.08;1.63;;;19.10;45.50;;;;;;5011088;28;20054;-43
2021/01/26 03:03:10;;;;;;;2.83;1.55;;;19.20;45.50;;;;;;5014364;28;20048;-40
2021/01/26 03:05:46;;;;;;;1.63;1.50;;;19.10;45.50;;;;;;5009388;28;20064;-40
2021/01/26 03:08:30;;;;;;;1.98;1.48;;;19.10;45.50;;;;;;5010646;28;20091;-40
2021/01/26 03:11:05;;;;;;;1.60;1.40;;;19.10;45.50;;;;;;5010785;28;20070;-40
2021/01/26 03:13:36;;;;;;;2.30;1.52;;;19.10;45.50;;;;;;5010883;28;20291;-39
2021/01/26 03:16:08;;;;;;;1.95;1.52;;;19.10;45.50;;;;;;5010083;28;20046;-40
2021/01/26 03:19:21;;;;;;;2.05;1.50;;;19.10;45.40;;;;;;5010830;28;20046;-39
2021/01/26 03:21:50;;;;;;;2.17;1.38;;;19.10;45.50;;;;;;5009615;28;20054;-40
2021/01/26 03:24:22;;;;;;;1.90;1.48;;;19.10;45.50;;;;;;5010681;28;20111;-40
2021/01/26 03:26:49;;;;;;;2.60;1.70;;;19.10;45.40;;;;;;5009904;28;20057;-40
2021/01/26 03:29:23;;;;;;;2.42;1.50;;;19.10;45.50;;;;;;5011653;28;20072;-42
2021/01/26 03:31:52;;;;;;;1.77;1.42;;;19.10;45.50;;;;;;5008901;28;20046;-40
2021/01/26 03:34:20;;;;;;;2.05;1.40;;;19.10;45.50;;;;;;5010305;28;20053;-39
2021/01/26 03:36:47;;;;;;;2.35;1.60;;;19.10;45.50;;;;;;5008739;28;20043;-41
2021/01/26 03:39:14;;;;;;;1.63;1.25;;;19.10;45.40;;;;;;5011743;28;20073;-39
2021/01/26 03:41:40;;;;;;;2.40;1.67;;;19.10;45.40;;;;;;5011820;28;20104;-40
2021/01/26 03:44:10;;;;;;;2.13;1.50;;;19.10;45.50;;;;;;5009816;28;20073;-39
2021/01/26 03:46:43;;;;;;;2.13;1.48;;;19.10;45.40;;;;;;5009499;28;20049;-39
2021/01/26 03:49:28;;;;;;;2.33;1.55;;;19.10;45.40;;;;;;5010139;28;20099;-40
2021/01/26 03:52:26;;;;;;;1.70;1.45;;;19.10;45.40;;;;;;5011093;28;20049;-41
2021/01/26 03:55:13;;;;;;;1.30;1.13;;;19.10;45.40;;;;;;5008322;28;20496;-43
2021/01/26 03:58:00;;;;;;;2.40;1.48;;;19.10;45.40;;;;;;5009738;28;20162;-39
2021/01/26 04:00:47;;;;;;;1.95;1.40;;;19.10;45.50;;;;;;5010432;28;20105;-40
2021/01/26 04:03:31;;;;;;;2.33;1.40;;;19.10;45.40;;;;;;5010790;28;20494;-43
2021/01/26 04:06:03;;;;;;;2.30;1.65;;;19.10;45.40;;;;;;5009606;28;20050;-40
2021/01/26 04:08:38;;;;;;;2.10;1.52;;;19.10;45.50;;;;;;5009627;28;20042;-39
2021/01/26 04:11:23;;;;;;;1.38;1.17;;;19.10;45.50;;;;;;5010791;28;20104;-40
2021/01/26 04:14:01;;;;;;;1.80;1.20;;;19.10;45.50;;;;;;5008815;28;20045;-39
2021/01/26 04:16:34;;;;;;;1.85;1.23;;;19.10;45.50;;;;;;5009502;28;20133;-39
2021/01/26 04:19:04;;;;;;;2.35;1.67;;;19.10;45.50;;;;;;5009329;28;20050;-39
2021/01/26 04:21:33;;;;;;;2.70;1.63;;;19.10;45.50;;;;;;5008491;28;20077;-39
2021/01/26 04:24:01;;;;;;;2.38;1.35;;;19.10;45.50;;;;;;5009771;28;20101;-40
2021/01/26 04:26:33;;;;;;;1.90;1.38;;;19.10;45.50;;;;;;5007248;28;20057;-39
2021/01/26 04:28:59;;;;;;;1.63;1.33;;;19.00;45.40;;;;;;5008481;28;20498;-40
2021/01/26 04:31:26;;;;;;;2.13;1.50;;;19.10;45.50;;;;;;5009345;28;20112;-40
2021/01/26 04:33:53;;;;;;;2.08;1.65;;;19.10;45.50;;;;;;5009416;28;20172;-40
2021/01/26 04:36:22;;;;;;;1.85;1.45;;;19.10;45.50;;;;;;5008884;28;20088;-39
2021/01/26 04:38:49;;;;;;;2.70;1.65;;;19.10;45.50;;;;;;5008967;28;20072;-39
2021/01/26 04:41:30;;;;;;;2.30;1.52;;;19.00;45.70;;;;;;5010018;28;20115;-41
2021/01/26 04:44:35;;;;;;;1.63;1.30;;;19.10;45.50;;;;;;5010268;28;20046;-39
2021/01/26 04:47:39;;;;;;;1.80;1.30;;;19.10;45.50;;;;;;4992721;28;20054;-40
2021/01/26 04:50:16;;;;;;;1.35;1.23;;;19.00;45.30;;;;;;4998318;28;20050;-40
2021/01/26 04:53:18;;;;;;;1.90;1.60;;;19.00;45.40;;;;;;5007905;28;20050;-39
2021/01/26 04:55:52;;;;;;;2.08;1.40;;;19.00;45.40;;;;;;5007629;28;20046;-39
2021/01/26 04:58:21;;;;;;;1.77;1.30;;;19.00;45.40;;;;;;5008956;28;20074;-40
2021/01/26 05:01:23;;;;;;;2.10;1.58;;;19.00;45.40;;;;;;5009383;28;20046;-39
2021/01/26 05:04:13;;;;;;;2.13;1.27;;;19.00;45.40;;;;;;4999981;28;20129;-40
2021/01/26 05:06:55;;;;;;;2.05;1.33;;;19.00;45.40;;;;;;5008528;28;20042;-40
2021/01/26 05:09:31;;;;;;;1.60;1.23;;;19.00;45.40;;;;;;5009142;28;20103;-42
2021/01/26 05:12:01;;;;;;;1.50;1.30;;;19.00;45.40;;;;;;5009335;28;20402;-39
2021/01/26 05:14:32;;;;;;;1.98;1.40;;;19.00;45.40;;;;;;5010111;28;20494;-39
2021/01/26 05:17:18;;;;;;;1.48;1.38;;;19.00;45.40;;;;;;5008514;28;20108;-39
2021/01/26 05:19:56;;;;;;;1.90;1.40;;;19.00;45.40;;;;;;5010422;28;20046;-40
2021/01/26 05:22:30;;;;;;;1.35;1.20;;;19.00;45.40;;;;;;5011691;28;20509;-39
2021/01/26 05:25:08;;;;;;;2.10;1.50;;;19.00;45.40;;;;;;5011382;28;20038;-40
2021/01/26 05:27:36;;;;;;;2.28;1.30;;;19.00;45.40;;;;;;5010599;28;20414;-39
2021/01/26 05:30:06;;;;;;;1.77;1.27;;;19.00;45.30;;;;;;5012590;28;20100;-39
2021/01/26 05:32:34;;;;;;;2.00;1.55;;;19.00;45.30;;;;;;5013053;28;20058;-40
2021/01/26 05:35:01;;;;;;;2.28;1.50;;;19.00;45.30;;;;;;5013361;28;20107;-39
2021/01/26 05:37:28;;;;;;;2.17;1.42;;;19.00;45.30;;;;;;5011880;28;20049;-40
2021/01/26 05:40:02;;;;;;;1.45;1.27;;;19.00;45.40;;;;;;5012388;28;20082;-39
2021/01/26 05:42:30;;;;;;;1.63;1.30;;;19.00;45.30;;;;;;5012567;28;20050;-39
2021/01/26 05:45:00;;;;;;;1.73;1.33;;;19.00;45.30;;;;;;5010766;28;20046;-39
2021/01/26 05:47:33;;;;;;;2.25;1.60;;;19.00;45.30;;;;;;5012131;28;20176;-39
2021/01/26 05:50:00;;;;;;;1.70;1.15;;;19.00;45.30;;;;;;5011008;28;20052;-41
2021/01/26 05:52:40;;;;;;;1.45;1.23;;;19.00;45.30;;;;;;5012501;28;20166;-39
2021/01/26 05:55:37;;;;;;;1.95;1.50;;;19.10;45.40;;;;;;5010834;28;20050;-41
2021/01/26 05:58:11;;;;;;;1.90;1.27;;;19.00;45.30;;;;;;5003177;28;20050;-40
2021/01/26 06:00:41;;;;;;;1.70;1.27;;;19.10;45.40;;;;;;5011933;28;20096;-39
2021/01/26 06:03:15;;;;;;;1.75;1.30;;;19.00;45.30;;;;;;5020481;28;20041;-40
2021/01/26 06:05:43;;;;;;;2.10;1.50;;;19.00;45.30;;;;;;5011602;28;20524;-40
2021/01/26 06:08:13;;;;;;;2.00;1.30;;;19.10;45.40;;;;;;5010289;28;20549;-43
2021/01/26 06:10:44;;;;;;;1.45;1.35;;;19.00;45.30;;;;;;5012285;28;20092;-40
2021/01/26 06:13:12;;;;;;;1.98;1.50;;;19.10;45.40;;;;;;4994676;28;20450;-41
2021/01/26 06:15:41;;;;;;;1.40;1.10;;;19.00;45.30;;;;;;5012038;28;20081;-45
2021/01/26 06:18:27;;;;;;;1.65;1.30;;;19.10;45.40;;;;;;5011814;28;20046;-41
2021/01/26 06:21:11;;;;;;;2.15;1.50;;;19.00;45.30;;;;;;5025075;28;20057;-41
2021/01/26 06:23:39;;;;;;;1.60;1.27;;;19.00;45.30;;;;;;5012783;28;20042;-42
2021/01/26 06:26:09;;;;;;;1.42;1.10;;;19.10;45.30;;;;;;5011000;28;20194;-41
2021/01/26 06:28:47;;;;;;;1.73;1.33;;;19.10;45.30;;;;;;5011364;28;20057;-40
2021/01/26 06:31:45;;;;;;;1.85;1.40;;;19.10;45.30;;;;;;5010922;28;20569;-43
2021/01/26 06:34:38;;;;;;;1.60;1.40;;;19.10;45.30;;;;;;5012653;28;20046;-40
2021/01/26 06:37:31;;;;;;;1.70;1.30;;;19.10;45.30;;;;;;5011466;28;20073;-43
2021/01/26 06:40:01;;;;;;;2.15;1.50;;;19.10;45.30;;;;;;5012049;28;20054;-46
2021/01/26 06:42:39;;;;;;;1.65;1.23;;;19.10;45.30;;;;;;5011283;28;20125;-40
2021/01/26 06:45:24;;;;;;;1.58;1.38;;;19.10;45.30;;;;;;5010877;28;20046;-41
2021/01/26 06:48:03;;;;;;;1.63;1.15;;;19.10;45.30;;;;;;5012550;28;20490;-41
2021/01/26 06:51:11;;;;;;;2.17;1.67;;;19.10;45.30;;;;;;5011312;28;20046;-42
2021/01/26 06:54:15;;;;;;;2.40;1.50;;;19.10;45.30;;;;;;5010257;28;20053;-40
2021/01/26 06:57:30;;;;;;;2.33;1.48;;;19.10;45.30;;;;;;5002010;28;20409;-40
2021/01/26 07:00:08;;;;;;;1.73;1.30;;;19.10;45.30;;;;;;4993552;28;20077;-45
2021/01/26 07:03:05;;;;;;;1.33;1.20;;;19.10;45.30;;;;;;5015888;28;20100;-40
2021/01/26 07:05:44;;;;;;;2.05;1.52;;;19.10;45.30;;;;;;5010668;28;20050;-39
2021/01/26 07:08:46;;;;;;;1.60;1.27;;;19.10;45.30;;;;;;5010607;28;20461;-39
2021/01/26 07:11:46;;;;;;;1.92;1.40;;;19.10;45.30;;;;;;5011933;28;20057;-40
2021/01/26 07:14:48;;;;;;;1.33;1.13;;;19.10;45.30;;;;;;5010451;28;20505;-40
2021/01/26 07:17:35;;;;;;;1.50;1.13;;;19.10;45.30;;;;;;5008718;28;20050;-40
2021/01/26 07:20:30;;;;;;;1.55;1.20;;;19.10;45.30;;;;;;5009315;28;20444;-40
2021/01/26 07:23:11;;;;;;;2.22;1.33;;;19.10;45.30;;;;;;5008802;28;20077;-40
2021/01/26 07:25:47;;;;;;;1.63;1.33;;;19.10;45.30;;;;;;5010058;28;20058;-41
2021/01/26 07:28:40;;;;;;;2.30;1.40;;;19.10;45.30;;;;;;5010352;28;20045;-41
2021/01/26 07:31:22;;;;;;;2.50;1.13;;;19.10;45.30;;;;;;5010030;28;20050;-40
2021/01/26 07:34:11;;;;;;;2.22;1.25;;;19.10;45.30;;;;;;5011627;28;20529;-39
2021/01/26 07:36:51;;;;;;;2.00;1.20;;;19.10;45.30;;;;;;5011491;28;20456;-42
2021/01/26 07:39:41;;;;;;;2.08;1.20;;;19.10;45.30;;;;;;5011458;28;20456;-40
2021/01/26 07:42:21;;;;;;;1.20;1.10;;;19.10;45.30;;;;;;5011140;28;20050;-39
2021/01/26 07:45:02;;;;;;;1.40;1.20;;;19.10;45.30;;;;;;5010962;28;20138;-39
2021/01/26 07:47:29;;;;;;;1.52;1.20;;;19.10;45.30;;;;;;5010816;28;20188;-41
2021/01/26 07:50:05;;;;;;;1.33;1.23;;;19.10;45.20;;;;;;5010474;28;20046;-40
2021/01/26 07:52:35;;;;;;;1.67;1.23;;;19.10;45.20;;;;;;5009456;28;20080;-40
2021/01/26 07:55:19;;;;;;;1.95;1.35;;;19.10;45.20;;;;;;5007212;28;20127;-42
2021/01/26 07:57:58;;;;;;;1.55;1.20;;;19.10;45.20;;;;;;5010533;28;20054;-42
2021/01/26 08:00:29;;;;;;;1.38;1.10;;;19.10;45.20;;;;;;5009663;28;20053;-40
2021/01/26 08:02:58;;;;;;;2.13;1.35;;;19.10;45.20;;;;;;5010158;28;20050;-40
2021/01/26 08:05:52;;;;;;;1.48;1.20;;;19.10;45.20;;;;;;5009168;28;20114;-39
2021/01/26 08:08:37;;;;;;;1.67;1.37;;;19.10;45.20;;;;;;5008379;28;20532;-40
2021/01/26 08:11:20;;;;;;;1.55;1.25;;;19.10;45.20;;;;;;5009326;28;20288;-39
2021/01/26 08:13:56;;;;;;;1.52;1.20;;;19.10;45.20;;;;;;5008935;28;20054;-40
2021/01/26 08:16:34;;;;;;;1.92;1.23;;;19.10;45.10;;;;;;5007856;28;20058;-39
2021/01/26 08:19:05;;;;;;;1.38;1.20;;;19.10;45.10;;;;;;5024503;28;20084;-41
2021/01/26 08:21:43;;;;;;;1.67;1.27;;;19.10;45.10;;;;;;5009025;28;20115;-39
2021/01/26 08:24:21;;;;;;;1.48;1.20;;;19.10;45.10;;;;;;5009316;28;20096;-41
2021/01/26 08:26:50;;;;;;;1.30;1.17;;;19.10;45.10;;;;;;5007356;28;20049;-43
2021/01/26 08:29:41;;;;;;;2.47;1.27;;;19.10;45.10;;;;;;5007828;28;20073;-40
2021/01/26 08:32:23;;;;;;;1.50;1.30;;;19.10;45.10;;;;;;5008115;28;20054;-40
2021/01/26 08:35:07;;;;;;;2.40;1.17;;;19.10;45.10;;;;;;5009039;28;20505;-42
2021/01/26 08:37:40;;;;;;;1.33;1.23;;;19.10;45.10;;;;;;5009147;28;20068;-39
2021/01/26 08:40:13;;;;;;;2.38;1.15;;;19.20;45.10;;;;;;5009544;28;20140;-42
2021/01/26 08:42:43;;;;;;;1.73;1.20;;;19.10;45.10;;;;;;5009391;28;20421;-40
2021/01/26 08:45:18;;;;;;;2.25;1.55;;;19.10;45.00;;;;;;5009003;28;20042;-40
2021/01/26 08:47:52;;;;;;;1.92;1.33;;;19.10;45.00;;;;;;5009062;28;20050;-41
2021/01/26 08:50:47;;;;;;;2.28;1.42;;;19.10;45.00;;;;;;5009116;28;20144;-39
2021/01/26 08:53:31;;;;;;;1.20;1.10;;;19.20;45.10;;;;;;5006283;28;20046;-39
2021/01/26 08:55:59;;;;;;;;;;;19.20;45.10;;;;;;5002388;28;20511;-40
2021/01/26 08:58:42;;;;;;;1.67;1.40;;;19.10;45.00;;;;;;5013126;28;20004;-39
2021/01/26 09:01:34;;;;;;;2.35;1.30;;;19.10;45.00;;;;;;5015346;28;20050;-40
2021/01/26 09:04:14;;;;;;;2.42;1.25;;;19.10;45.00;;;;;;5024371;28;20050;-39
2021/01/26 09:06:43;;;;;;;1.35;1.08;;;19.20;45.10;;;;;;5012483;28;20096;-40
2021/01/26 09:09:14;;;;;;;1.52;1.10;;;19.10;45.00;;;;;;5012840;28;20076;-40
2021/01/26 09:11:48;;;;;;;1.92;1.20;;;19.10;45.00;;;;;;5013169;28;20038;-39
2021/01/26 09:14:17;;;;;;;2.50;1.40;;;19.20;45.10;;;;;;5012853;28;20100;-40
2021/01/26 09:16:45;;;;;;;1.98;1.30;;;19.20;45.00;;;;;;5012952;28;20042;-39
2021/01/26 09:19:26;;;;;;;1.65;1.17;;;19.10;44.90;;;;;;5013919;28;20042;-40
2021/01/26 09:21:53;;;;;;;3.58;1.30;;;19.20;45.00;;;;;;5014181;28;20426;-40
2021/01/26 09:24:24;;;;;;;1.20;1.10;;;19.20;45.10;;;;;;5011894;28;20077;-40
2021/01/26 09:26:51;;;;;;;1.80;1.27;;;19.20;45.00;;;;;;5011908;28;20146;-39
2021/01/26 09:29:27;;;;;;;1.95;1.20;;;19.20;45.00;;;;;;5012502;28;20081;-39
2021/01/26 09:31:56;;;;;;;2.30;1.20;;;19.20;44.90;;;;;;5012472;28;20398;-39
2021/01/26 09:34:28;;;;;;;1.58;1.33;;;19.20;45.00;;;;;;5027593;28;20054;-39
2021/01/26 09:37:28;;;;;;;2.05;1.38;;;19.20;44.90;;;;;;5012271;28;20064;-41
2021/01/26 09:40:07;;;;;;;2.47;1.40;;;19.20;44.90;;;;;;4972910;28;20057;-39
2021/01/26 09:42:34;;;;;;;2.92;1.40;;;19.20;44.90;;;;;;4972756;28;20126;-42
2021/01/26 09:45:06;;;;;;;2.38;1.30;;;19.20;44.90;;;;;;4972489;28;20046;-41
2021/01/26 09:47:33;;;;;;;1.58;1.20;;;19.20;44.90;;;;;;4972226;28;20072;-40
2021/01/26 09:50:06;;;;;;;1.67;1.20;;;19.20;44.90;;;;;;4973084;28;20080;-41
2021/01/26 09:52:33;;;;;;;1.70;1.20;;;19.20;44.90;;;;;;4972802;28;20471;-41
2021/01/26 09:55:09;;;;;;;1.33;1.20;;;19.20;44.90;;;;;;4971311;28;20456;-42
2021/01/26 09:57:37;;;;;;;1.60;1.30;;;19.20;44.90;;;;;;4972147;28;20082;-39
2021/01/26 10:00:07;;;;;;;3.05;1.20;;;19.20;44.90;;;;;;4971812;28;20086;-40
2021/01/26 10:02:35;;;;;;;3.35;1.20;;;19.20;44.90;;;;;;4983863;28;20264;-39
2021/01/26 10:05:02;;;;;;;1.85;1.27;;;19.20;44.90;;;;;;4972830;28;20125;-40
2021/01/26 10:07:28;;;;;;;2.00;1.40;;;19.20;44.80;;;;;;4955269;28;20082;-40
2021/01/26 10:10:12;;;;;;;1.60;1.10;;;19.20;44.90;;;;;;4972820;28;20458;-40
2021/01/26 10:12:40;;;;;;;1.85;1.33;;;19.20;44.80;;;;;;4984395;28;20577;-41
2021/01/26 10:15:30;;;;;;;2.97;1.20;;;19.30;45.00;;;;;;4983512;28;20069;-40
2021/01/26 10:18:08;;;;;;;2.25;1.40;;;19.20;44.80;;;;;;5008480;28;20100;-40
2021/01/26 10:20:48;;;;;;;1.48;1.10;;;19.20;44.80;;;;;;5010487;28;20082;-42
2021/01/26 10:23:43;;;;;;;2.70;1.33;;;19.20;44.80;;;;;;5011388;28;20046;-37
2021/01/26 10:26:23;;;;;;;2.40;1.40;;;19.30;45.00;;;;;;5006919;28;20057;-40
2021/01/26 10:29:10;;;;;;;2.10;1.30;;;19.30;44.90;;;;;;5011096;28;20494;-41
2021/01/26 10:31:54;;;;;;;2.10;1.40;;;19.30;44.90;;;;;;5010985;28;20052;-39
2021/01/26 10:34:31;;;;;;;4.28;1.27;;;19.30;44.90;;;;;;5011228;28;20065;-38
2021/01/26 10:37:30;;;;;;;2.60;1.10;;;19.30;44.90;;;;;;5010630;28;20132;-41
2021/01/26 10:40:04;;;;;;;1.52;1.25;;;19.30;44.90;;;;;;5004552;28;20049;-39
2021/01/26 10:42:31;;;;;;;1.65;1.20;;;19.30;44.90;;;;;;5010952;28;20045;-39
2021/01/26 10:44:59;;;;;;;1.08;0.82;;;19.30;44.90;;;;;;5010771;28;20049;-39
2021/01/26 10:47:37;;;;;;;2.00;1.23;;;19.30;44.90;;;;;;5008973;28;20054;-39
2021/01/26 10:50:11;;;;;;;2.38;1.60;;;19.30;44.90;;;;;;5009560;28;20125;-38
2021/01/26 10:52:47;;;;;;;1.67;1.40;;;19.30;44.90;;;;;;5025692;28;20064;-39
2021/01/26 10:55:19;;;;;;;2.15;1.38;;;19.30;44.90;;;;;;5009315;28;20104;-40
2021/01/26 10:57:47;;;;;;;2.78;1.75;;;19.30;44.80;;;;;;5025294;28;20072;-38
2021/01/26 11:00:17;;;;;;;1.50;1.20;;;19.30;44.80;;;;;;5009618;28;20107;-39
2021/01/26 11:02:44;;;;;;;2.53;1.20;;;19.30;44.90;;;;;;5018119;28;20056;-39
2021/01/26 11:05:12;;;;;;;1.77;1.20;;;19.30;44.90;;;;;;5009552;28;20053;-40
2021/01/26 11:07:39;;;;;;;1.60;1.30;;;19.30;44.80;;;;;;5010244;28;20096;-39
2021/01/26 11:10:10;;;;;;;2.25;1.25;;;19.30;44.80;;;;;;5027067;28;20506;-39
2021/01/26 11:12:41;;;;;;;2.35;1.38;;;19.30;44.80;;;;;;5011808;28;20107;-41
2021/01/26 11:15:17;;;;;;;2.10;1.40;;;19.30;44.80;;;;;;5010650;28;20092;-42
2021/01/26 11:17:45;;;;;;;2.00;1.23;;;19.30;44.80;;;;;;5009732;28;20056;-40
2021/01/26 11:20:12;;;;;;;1.33;0.98;;;19.30;44.80;;;;;;5011711;28;20046;-43
2021/01/26 11:22:39;;;;;;;1.48;1.27;;;19.30;44.80;;;;;;5010558;28;20050;-41
2021/01/26 11:25:07;;;;;;;1.42;1.13;;;19.30;44.80;;;;;;5025559;28;20057;-39
2021/01/26 11:27:34;;;;;;;2.00;1.10;;;19.30;44.80;;;;;;5009792;28;20050;-46
2021/01/26 11:30:07;;;;;;;1.98;1.50;;;19.30;44.80;;;;;;5009208;28;20144;-40
2021/01/26 11:32:35;;;;;;;2.28;1.45;;;19.30;44.80;;;;;;5011459;28;20076;-41
2021/01/26 11:35:05;;;;;;;2.15;1.42;;;19.30;44.80;;;;;;5010120;28;20505;-39
2021/01/26 11:37:32;;;;;;;1.20;1.10;;;19.30;45.40;;;;;;5008864;28;20602;-39
2021/01/26 11:39:58;;;;;;;1.60;1.25;;;19.30;44.80;;;;;;5008889;28;20102;-41
2021/01/26 11:42:25;;;;;;;3.63;1.50;;;19.30;44.80;;;;;;5010413;28;20392;-41
2021/01/26 11:44:51;;;;;;;1.42;0.90;;;19.30;44.80;;;;;;5010147;28;20124;-39
2021/01/26 11:47:18;;;;;;;2.22;1.30;;;19.30;44.80;;;;;;5009506;28;20091;-46
2021/01/26 11:49:45;;;;;;;1.50;1.15;;;19.30;44.80;;;;;;5010749;28;20049;-40
2021/01/26 11:52:11;;;;;;;1.55;1.30;;;19.30;44.80;;;;;;5010120;28;20057;-40
2021/01/26 11:54:38;;;;;;;3.30;1.40;;;19.30;44.80;;;;;;5008458;28;20107;-46
2021/01/26 11:57:05;;;;;;;2.22;1.27;;;19.30;44.80;;;;;;5008175;28;20049;-40
2021/01/26 11:59:31;;;;;;;2.05;1.50;;;19.30;44.80;;;;;;5010849;28;20052;-41
2021/01/26 12:01:58;;;;;;;1.83;1.20;;;19.30;44.80;;;;;;5011857;28;20121;-40
2021/01/26 12:04:25;;;;;;;1.45;1.00;;;19.30;44.80;;;;;;5008126;28;20509;-38
2021/01/26 12:06:52;;;;;;;2.38;1.25;;;19.40;44.90;;;;;;5009778;28;20141;-39
2021/01/26 12:09:19;;;;;;;2.17;1.50;;;19.30;44.80;;;;;;5009965;28;20453;-40
2021/01/26 12:11:46;;;;;;;2.53;1.48;;;19.30;44.80;;;;;;5009713;28;20045;-39
2021/01/26 12:14:13;;;;;;;1.15;1.05;;;19.30;44.80;;;;;;5008909;28;20058;-39
2021/01/26 12:16:39;;;;;;;1.55;1.20;;;19.30;44.80;;;;;;5009016;28;20088;-39
2021/01/26 12:19:06;;;;;;;1.33;1.17;;;19.30;44.80;;;;;;5009642;28;20058;-39
2021/01/26 12:21:32;;;;;;;1.30;1.20;;;19.30;44.80;;;;;;5008173;28;20509;-39
2021/01/26 12:23:59;;;;;;;1.52;1.15;;;19.30;44.80;;;;;;5008422;28;20053;-39
2021/01/26 12:26:26;;;;;;;1.80;1.15;;;19.30;44.80;;;;;;5007429;28;20100;-40
2021/01/26 12:28:53;;;;;;;1.83;1.10;;;19.30;44.80;;;;;;5009059;28;20529;-39
2021/01/26 12:31:20;;;;;;;1.90;1.33;;;19.30;44.80;;;;;;5009613;28;20100;-39
2021/01/26 12:33:47;;;;;;;1.55;1.33;;;19.30;44.80;;;;;;5011161;28;20132;-40
2021/01/26 12:36:13;;;;;;;1.50;1.20;;;19.30;44.80;;;;;;5010581;28;20103;-39
2021/01/26 12:38:40;;;;;;;1.80;1.30;;;19.30;44.80;;;;;;5007670;28;20494;-40
2021/01/26 12:41:06;;;;;;;2.08;1.20;;;19.30;44.90;;;;;;5008079;28;20046;-40
2021/01/26 12:43:33;;;;;;;2.22;1.30;;;19.30;44.80;;;;;;5008038;28;20396;-40
2021/01/26 12:46:00;;;;;;;1.60;1.08;;;19.30;44.80;;;;;;5007329;28;20042;-40
2021/01/26 12:48:27;;;;;;;1.35;1.10;;;19.30;44.90;;;;;;5008941;28;20399;-44
2021/01/26 12:51:10;;;;;;;1.35;1.20;;;19.30;44.80;;;;;;5009574;28;20042;-40
2021/01/26 12:53:36;;;;;;;1.08;0.88;;;19.30;44.80;;;;;;5024282;28;20050;-40
2021/01/26 12:56:03;;;;;;;2.03;1.35;;;19.30;44.90;;;;;;5007360;28;20058;-39
2021/01/26 12:58:30;;;;;;;1.35;1.02;;;19.30;44.90;;;;;;5007324;28;20130;-41
2021/01/26 13:00:58;;;;;;;2.53;1.20;;;19.30;44.90;;;;;;5024187;28;20052;-43
2021/01/26 13:03:25;;;;;;;1.17;0.93;;;19.30;44.90;;;;;;5010602;28;20497;-40
2021/01/26 13:05:51;;;;;;;1.40;1.13;;;19.30;44.90;;;;;;5009426;28;20104;-42
2021/01/26 13:08:18;;;;;;;1.65;1.15;;;19.30;44.80;;;;;;5008432;28;20054;-39
2021/01/26 13:10:45;;;;;;;1.88;1.02;;;19.30;44.80;;;;;;5009542;28;20144;-40
2021/01/26 13:13:11;;;;;;;1.67;1.40;;;19.30;44.80;;;;;;5007434;28;20152;-39
2021/01/26 13:15:38;;;;;;;2.70;1.23;;;19.30;44.90;;;;;;5008677;28;20128;-42
2021/01/26 13:18:05;;;;;;;3.05;1.60;;;19.30;44.90;;;;;;4996706;28;20054;-41
2021/01/26 13:20:32;;;;;;;1.40;1.08;;;19.30;44.90;;;;;;5005574;28;20120;-40
2021/01/26 13:23:00;;;;;;;1.90;1.15;;;19.30;44.90;;;;;;5010018;28;20129;-40
2021/01/26 13:25:27;;;;;;;1.70;1.35;;;19.30;44.90;;;;;;5022464;28;20069;-42
2021/01/26 13:27:55;;;;;;;1.50;1.00;;;19.30;44.90;;;;;;4991600;28;20054;-40